PWSweather.com
Personal Weather Stations
Station Observations
WODONGA
Wodonga, WodongaAU 3690

WodongaWodongaAU 3690

Lat: -36.121, Lon: 146.87

Elevation: 541

Station Type: Weather Station

http://www.wodongaweather.net

High Low Average
Temperature 91.0°F32.8°F 58.1°F14.5°F 74.8°F23.8°F
Dew Point 53.9°F12.2°F 39.3°F4.1°F 48.6°F9.2°F
Winds 9.3 mph N15.0 mph N Calm Calm 3.1 mph 5.0 mph
Wind Gusts 14.5 mph23.3 mph -- 4.9 mph7.9 mph
Humidity 72% 18% 44%
Pressure 29.98 in1015.20 in 29.76 in1007.80 in -
Precipitation 0.00 in0.00 in - -
Hour Temp Dew Point Humidity Winds Wind Gusts Pressure Precip Precip Rate Daily Precip Total
12:00 AM 66.7°F19.3°C 52.4°F11.3°C 60% 1.2 mph S1.9 kmh S 2.2 mph3.5 kmh 29.92 in1013.2 mb 0.00 in0.0 mm 0.00 in0.0 mm 0.00 in0.0 mm
12:05 AM 66.4°F19.1°C 52.5°F11.4°C 61% 0.8 mph SSW1.3 kmh SSW 2.2 mph3.5 kmh 29.92 in1013.2 mb 0.00 in0.0 mm 0.00 in0.0 mm 0.00 in0.0 mm
12:10 AM 65.8°F18.8°C 52.5°F11.4°C 62% 0.8 mph SSW1.3 kmh SSW 1.6 mph2.6 kmh 29.92 in1013.2 mb 0.00 in0.0 mm 0.00 in0.0 mm 0.00 in0.0 mm
12:15 AM 66.0°F18.9°C 52.6°F11.4°C 62% 1.5 mph S2.4 kmh S 2.2 mph3.5 kmh 29.92 in1013.2 mb 0.00 in0.0 mm 0.00 in0.0 mm 0.00 in0.0 mm
12:20 AM 66.0°F18.9°C 52.6°F11.4°C 62% 1.8 mph S2.9 kmh S 2.2 mph3.5 kmh 29.92 in1013.2 mb 0.00 in0.0 mm 0.00 in0.0 mm 0.00 in0.0 mm
12:25 AM 65.8°F18.8°C 52.5°F11.4°C 62% 1.9 mph S3.1 kmh S 2.2 mph3.5 kmh 29.92 in1013.2 mb 0.00 in0.0 mm 0.00 in0.0 mm 0.00 in0.0 mm
12:30 AM 65.7°F18.7°C 52.3°F11.3°C 62% 1.9 mph SSW3.1 kmh SSW 2.2 mph3.5 kmh 29.92 in1013.2 mb 0.00 in0.0 mm 0.00 in0.0 mm 0.00 in0.0 mm
12:35 AM 65.7°F18.7°C 52.3°F11.3°C 62% 1.3 mph SW2.1 kmh SW 2.2 mph3.5 kmh 29.92 in1013.2 mb 0.00 in0.0 mm 0.00 in0.0 mm 0.00 in0.0 mm
12:40 AM 65.7°F18.7°C 52.3°F11.3°C 62% 1.2 mph SW1.9 kmh SW 2.2 mph3.5 kmh 29.92 in1013.2 mb 0.00 in0.0 mm 0.00 in0.0 mm 0.00 in0.0 mm
12:45 AM 65.5°F18.6°C 52.1°F11.2°C 62% 2.0 mph SSW3.2 kmh SSW 3.1 mph5.0 kmh 29.92 in1013.2 mb 0.00 in0.0 mm 0.00 in0.0 mm 0.00 in0.0 mm
01:35 AM 63.9°F17.7°C 51.0°F10.6°C 63% 1.9 mph SSE3.1 kmh SSE 2.2 mph3.5 kmh 29.91 in1012.9 mb 0.00 in0.0 mm 0.00 in0.0 mm 0.00 in0.0 mm
01:40 AM 63.7°F17.6°C 50.9°F10.5°C 63% 1.6 mph S2.6 kmh S 2.2 mph3.5 kmh 29.92 in1013.2 mb 0.00 in0.0 mm 0.00 in0.0 mm 0.00 in0.0 mm
01:45 AM 63.5°F17.5°C 50.7°F10.4°C 63% 1.1 mph S1.8 kmh S 2.2 mph3.5 kmh 29.92 in1013.2 mb 0.00 in0.0 mm 0.00 in0.0 mm 0.00 in0.0 mm
01:50 AM 63.5°F17.5°C 50.7°F10.4°C 63% 0.6 mph SSW1.0 kmh SSW 2.2 mph3.5 kmh 29.92 in1013.2 mb 0.00 in0.0 mm 0.00 in0.0 mm 0.00 in0.0 mm
01:55 AM 63.1°F17.3°C 50.8°F10.4°C 64% 0.3 mph WSW0.5 kmh WSW 1.6 mph2.6 kmh 29.92 in1013.2 mb 0.00 in0.0 mm 0.00 in0.0 mm 0.00 in0.0 mm
02:00 AM 63.0°F17.2°C 50.6°F10.3°C 64% 0.7 mph ENE1.1 kmh ENE 2.2 mph3.5 kmh 29.92 in1013.2 mb 0.00 in0.0 mm 0.00 in0.0 mm 0.00 in0.0 mm
02:05 AM 63.0°F17.2°C 50.6°F10.3°C 64% 1.3 mph ENE2.1 kmh ENE 2.2 mph3.5 kmh 29.92 in1013.2 mb 0.00 in0.0 mm 0.00 in0.0 mm 0.00 in0.0 mm
02:10 AM 62.8°F17.1°C 50.9°F10.5°C 65% 0.8 mph ENE1.3 kmh ENE 1.6 mph2.6 kmh 29.92 in1013.2 mb 0.00 in0.0 mm 0.00 in0.0 mm 0.00 in0.0 mm
02:15 AM 62.6°F17.0°C 50.7°F10.4°C 65% 0.2 mph ENE0.3 kmh ENE 0.7 mph1.1 kmh 29.92 in1013.2 mb 0.00 in0.0 mm 0.00 in0.0 mm 0.00 in0.0 mm
02:20 AM 62.4°F16.9°C 50.9°F10.5°C 66% 0.4 mph ENE0.6 kmh ENE 2.2 mph3.5 kmh 29.92 in1013.2 mb 0.00 in0.0 mm 0.00 in0.0 mm 0.00 in0.0 mm
02:25 AM 62.4°F16.9°C 50.9°F10.5°C 66% 1.2 mph ESE1.9 kmh ESE 2.2 mph3.5 kmh 29.92 in1013.2 mb 0.00 in0.0 mm 0.00 in0.0 mm 0.00 in0.0 mm
02:30 AM 62.2°F16.8°C 50.8°F10.4°C 66% 2.1 mph SE3.4 kmh SE 3.1 mph5.0 kmh 29.92 in1013.2 mb 0.00 in0.0 mm 0.00 in0.0 mm 0.00 in0.0 mm
02:35 AM 62.1°F16.7°C 51.0°F10.6°C 67% 2.1 mph SE3.4 kmh SE 3.1 mph5.0 kmh 29.92 in1013.2 mb 0.00 in0.0 mm 0.00 in0.0 mm 0.00 in0.0 mm
02:40 AM 61.9°F16.6°C 50.8°F10.4°C 67% 1.7 mph SSE2.7 kmh SSE 2.2 mph3.5 kmh 29.92 in1013.2 mb 0.00 in0.0 mm 0.00 in0.0 mm 0.00 in0.0 mm
02:45 AM 61.7°F16.5°C 50.6°F10.3°C 67% 0.9 mph SSW1.4 kmh SSW 2.2 mph3.5 kmh 29.92 in1013.2 mb 0.00 in0.0 mm 0.00 in0.0 mm 0.00 in0.0 mm
02:50 AM 61.7°F16.5°C 50.6°F10.3°C 67% 0.5 mph WSW0.8 kmh WSW 0.7 mph1.1 kmh 29.92 in1013.2 mb 0.00 in0.0 mm 0.00 in0.0 mm 0.00 in0.0 mm
02:55 AM 61.5°F16.4°C 50.5°F10.3°C 67% 0.5 mph WSW0.8 kmh WSW 0.7 mph1.1 kmh 29.92 in1013.2 mb 0.00 in0.0 mm 0.00 in0.0 mm 0.00 in0.0 mm
03:00 AM 61.3°F16.3°C 50.3°F10.2°C 67% 0.2 mph WSW0.3 kmh WSW 0.7 mph1.1 kmh 29.91 in1012.9 mb 0.00 in0.0 mm 0.00 in0.0 mm 0.00 in0.0 mm
03:05 AM 61.3°F16.3°C 50.3°F10.2°C 67% 0.7 mph S1.1 kmh S 1.6 mph2.6 kmh 29.92 in1013.2 mb 0.00 in0.0 mm 0.00 in0.0 mm 0.00 in0.0 mm
03:10 AM 61.2°F16.2°C 50.1°F10.1°C 67% 1.3 mph S2.1 kmh S 1.6 mph2.6 kmh 29.92 in1013.2 mb 0.00 in0.0 mm 0.00 in0.0 mm 0.00 in0.0 mm
03:15 AM 61.2°F16.2°C 50.1°F10.1°C 67% 0.7 mph S1.1 kmh S 1.6 mph2.6 kmh 29.92 in1013.2 mb 0.00 in0.0 mm 0.00 in0.0 mm 0.00 in0.0 mm
03:20 AM 60.8°F16.0°C 50.2°F10.1°C 68% 0.2 mph SW0.3 kmh SW 0.7 mph1.1 kmh 29.92 in1013.2 mb 0.00 in0.0 mm 0.00 in0.0 mm 0.00 in0.0 mm
03:25 AM 60.6°F15.9°C 50.0°F10.0°C 68% 0.3 mph NW0.5 kmh NW 1.6 mph2.6 kmh 29.92 in1013.2 mb 0.00 in0.0 mm 0.00 in0.0 mm 0.00 in0.0 mm
03:30 AM 60.4°F15.8°C 49.8°F9.9°C 68% 0.2 mph N0.3 kmh N 1.6 mph2.6 kmh 29.92 in1013.2 mb 0.00 in0.0 mm 0.00 in0.0 mm 0.00 in0.0 mm
03:35 AM 60.6°F15.9°C 50.0°F10.0°C 68% 0.1 mph N0.2 kmh N 1.6 mph2.6 kmh 29.92 in1013.2 mb 0.00 in0.0 mm 0.00 in0.0 mm 0.00 in0.0 mm
03:40 AM 60.4°F15.8°C 49.8°F9.9°C 68% 0.3 mph N0.5 kmh N 1.6 mph2.6 kmh 29.92 in1013.2 mb 0.00 in0.0 mm 0.00 in0.0 mm 0.00 in0.0 mm
03:45 AM 60.4°F15.8°C 50.2°F10.1°C 69% 0.2 mph N0.3 kmh N 1.6 mph2.6 kmh 29.92 in1013.2 mb 0.00 in0.0 mm 0.00 in0.0 mm 0.00 in0.0 mm
03:50 AM 60.3°F15.7°C 50.1°F10.1°C 69% Calm Calm -- 29.92 in1013.2 mb 0.00 in0.0 mm 0.00 in0.0 mm 0.00 in0.0 mm
03:55 AM 60.3°F15.7°C 50.1°F10.1°C 69% 0.1 mph S0.2 kmh S 0.7 mph1.1 kmh 29.93 in1013.5 mb 0.00 in0.0 mm 0.00 in0.0 mm 0.00 in0.0 mm
04:00 AM 60.1°F15.6°C 49.9°F9.9°C 69% 0.8 mph SSE1.3 kmh SSE 1.6 mph2.6 kmh 29.93 in1013.5 mb 0.00 in0.0 mm 0.00 in0.0 mm 0.00 in0.0 mm
04:05 AM 60.1°F15.6°C 49.9°F9.9°C 69% 0.9 mph SE1.4 kmh SE 1.6 mph2.6 kmh 29.93 in1013.5 mb 0.00 in0.0 mm 0.00 in0.0 mm 0.00 in0.0 mm
04:10 AM 59.9°F15.5°C 49.7°F9.8°C 69% 0.2 mph SSE0.3 kmh SSE 1.6 mph2.6 kmh 29.93 in1013.5 mb 0.00 in0.0 mm 0.00 in0.0 mm 0.00 in0.0 mm
04:15 AM 59.5°F15.3°C 49.4°F9.7°C 69% 0.1 mph S0.2 kmh S 1.6 mph2.6 kmh 29.93 in1013.5 mb 0.00 in0.0 mm 0.00 in0.0 mm 0.00 in0.0 mm
04:20 AM 59.4°F15.2°C 49.2°F9.6°C 69% 0.6 mph SSE1.0 kmh SSE 1.6 mph2.6 kmh 29.93 in1013.5 mb 0.00 in0.0 mm 0.00 in0.0 mm 0.00 in0.0 mm
04:25 AM 59.4°F15.2°C 49.2°F9.6°C 69% 1.0 mph S1.6 kmh S 1.6 mph2.6 kmh 29.93 in1013.5 mb 0.00 in0.0 mm 0.00 in0.0 mm 0.00 in0.0 mm
04:30 AM 59.2°F15.1°C 49.4°F9.7°C 70% 1.2 mph S1.9 kmh S 1.6 mph2.6 kmh 29.93 in1013.5 mb 0.00 in0.0 mm 0.00 in0.0 mm 0.00 in0.0 mm
04:35 AM 59.2°F15.1°C 49.4°F9.7°C 70% 1.2 mph S1.9 kmh S 1.6 mph2.6 kmh 29.93 in1013.5 mb 0.00 in0.0 mm 0.00 in0.0 mm 0.00 in0.0 mm
04:40 AM 59.0°F15.0°C 49.2°F9.6°C 70% 0.7 mph SSW1.1 kmh SSW 1.6 mph2.6 kmh 29.94 in1013.9 mb 0.00 in0.0 mm 0.00 in0.0 mm 0.00 in0.0 mm
04:45 AM 58.8°F14.9°C 49.1°F9.5°C 70% 0.5 mph SSW0.8 kmh SSW 1.6 mph2.6 kmh 29.94 in1013.9 mb 0.00 in0.0 mm 0.00 in0.0 mm 0.00 in0.0 mm
04:50 AM 58.8°F14.9°C 49.1°F9.5°C 70% 0.7 mph S1.1 kmh S 1.6 mph2.6 kmh 29.94 in1013.9 mb 0.00 in0.0 mm 0.00 in0.0 mm 0.00 in0.0 mm
04:55 AM 58.6°F14.8°C 49.3°F9.6°C 71% 1.0 mph S1.6 kmh S 1.6 mph2.6 kmh 29.94 in1013.9 mb 0.00 in0.0 mm 0.00 in0.0 mm 0.00 in0.0 mm
05:00 AM 58.5°F14.7°C 49.1°F9.5°C 71% 1.0 mph SSE1.6 kmh SSE 2.2 mph3.5 kmh 29.94 in1013.9 mb 0.00 in0.0 mm 0.00 in0.0 mm 0.00 in0.0 mm
05:05 AM 58.3°F14.6°C 48.9°F9.4°C 71% 0.5 mph SE0.8 kmh SE 2.2 mph3.5 kmh 29.94 in1013.9 mb 0.00 in0.0 mm 0.00 in0.0 mm 0.00 in0.0 mm
05:10 AM 58.3°F14.6°C 48.9°F9.4°C 71% 0.5 mph SSW0.8 kmh SSW 1.6 mph2.6 kmh 29.95 in1014.2 mb 0.00 in0.0 mm 0.00 in0.0 mm 0.00 in0.0 mm
05:15 AM 58.1°F14.5°C 48.8°F9.3°C 71% 0.4 mph SW0.6 kmh SW 1.6 mph2.6 kmh 29.94 in1013.9 mb 0.00 in0.0 mm 0.00 in0.0 mm 0.00 in0.0 mm
05:20 AM 58.1°F14.5°C 49.1°F9.5°C 72% 0.1 mph SE0.2 kmh SE 0.7 mph1.1 kmh 29.94 in1013.9 mb 0.00 in0.0 mm 0.00 in0.0 mm 0.00 in0.0 mm
05:25 AM 58.1°F14.5°C 49.1°F9.5°C 72% 0.3 mph SE0.5 kmh SE 1.6 mph2.6 kmh 29.94 in1013.9 mb 0.00 in0.0 mm 0.00 in0.0 mm 0.00 in0.0 mm
05:30 AM 58.3°F14.6°C 49.3°F9.6°C 72% 1.1 mph SE1.8 kmh SE 2.2 mph3.5 kmh 29.94 in1013.9 mb 0.00 in0.0 mm 0.00 in0.0 mm 0.00 in0.0 mm
05:35 AM 58.3°F14.6°C 49.3°F9.6°C 72% 1.4 mph SE2.3 kmh SE 2.2 mph3.5 kmh 29.94 in1013.9 mb 0.00 in0.0 mm 0.00 in0.0 mm 0.00 in0.0 mm
05:40 AM 58.5°F14.7°C 49.5°F9.7°C 72% 0.6 mph ESE1.0 kmh ESE 1.6 mph2.6 kmh 29.95 in1014.2 mb 0.00 in0.0 mm 0.00 in0.0 mm 0.00 in0.0 mm
05:45 AM 58.6°F14.8°C 49.7°F9.8°C 72% 0.7 mph WNW1.1 kmh WNW 1.6 mph2.6 kmh 29.95 in1014.2 mb 0.00 in0.0 mm 0.00 in0.0 mm 0.00 in0.0 mm
05:50 AM 58.8°F14.9°C 49.4°F9.7°C 71% 0.5 mph WNW0.8 kmh WNW 1.6 mph2.6 kmh 29.95 in1014.2 mb 0.00 in0.0 mm 0.00 in0.0 mm 0.00 in0.0 mm
05:55 AM 59.0°F15.0°C 49.6°F9.8°C 71% 0.6 mph S1.0 kmh S 1.6 mph2.6 kmh 29.96 in1014.6 mb 0.00 in0.0 mm 0.00 in0.0 mm 0.00 in0.0 mm
06:00 AM 59.2°F15.1°C 50.2°F10.1°C 72% 1.5 mph SSE2.4 kmh SSE 2.2 mph3.5 kmh 29.96 in1014.6 mb 0.00 in0.0 mm 0.00 in0.0 mm 0.00 in0.0 mm
06:05 AM 59.5°F15.3°C 50.1°F10.1°C 71% 2.6 mph SE4.2 kmh SE 3.8 mph6.1 kmh 29.96 in1014.6 mb 0.00 in0.0 mm 0.00 in0.0 mm 0.00 in0.0 mm
06:10 AM 59.9°F15.5°C 50.5°F10.3°C 71% 3.0 mph SE4.8 kmh SE 3.8 mph6.1 kmh 29.96 in1014.6 mb 0.00 in0.0 mm 0.00 in0.0 mm 0.00 in0.0 mm
06:15 AM 60.1°F15.6°C 50.7°F10.4°C 71% 2.5 mph SE4.0 kmh SE 3.8 mph6.1 kmh 29.96 in1014.6 mb 0.00 in0.0 mm 0.00 in0.0 mm 0.00 in0.0 mm
06:20 AM 60.4°F15.8°C 51.0°F10.6°C 71% 2.2 mph SE3.5 kmh SE 3.1 mph5.0 kmh 29.96 in1014.6 mb 0.00 in0.0 mm 0.00 in0.0 mm 0.00 in0.0 mm
06:25 AM 60.8°F16.0°C 51.4°F10.8°C 71% 2.1 mph SE3.4 kmh SE 3.1 mph5.0 kmh 29.96 in1014.6 mb 0.00 in0.0 mm 0.00 in0.0 mm 0.00 in0.0 mm
06:30 AM 61.3°F16.3°C 51.9°F11.1°C 71% 2.1 mph SSE3.4 kmh SSE 3.1 mph5.0 kmh 29.97 in1014.9 mb 0.00 in0.0 mm 0.00 in0.0 mm 0.00 in0.0 mm
06:35 AM 61.9°F16.6°C 52.0°F11.1°C 70% 2.1 mph S3.4 kmh S 3.1 mph5.0 kmh 29.96 in1014.6 mb 0.00 in0.0 mm 0.00 in0.0 mm 0.00 in0.0 mm
06:40 AM 62.4°F16.9°C 52.5°F11.4°C 70% 2.2 mph S3.5 kmh S 3.1 mph5.0 kmh 29.97 in1014.9 mb 0.00 in0.0 mm 0.00 in0.0 mm 0.00 in0.0 mm
06:45 AM 63.0°F17.2°C 52.3°F11.3°C 68% 2.8 mph SSE4.5 kmh SSE 3.1 mph5.0 kmh 29.97 in1014.9 mb 0.00 in0.0 mm 0.00 in0.0 mm 0.00 in0.0 mm
06:50 AM 63.5°F17.5°C 52.4°F11.3°C 67% 3.1 mph SSE5.0 kmh SSE 3.1 mph5.0 kmh 29.97 in1014.9 mb 0.00 in0.0 mm 0.00 in0.0 mm 0.00 in0.0 mm
06:55 AM 63.9°F17.7°C 52.3°F11.3°C 66% 3.6 mph SE5.8 kmh SE 5.4 mph8.7 kmh 29.97 in1014.9 mb 0.00 in0.0 mm 0.00 in0.0 mm 0.00 in0.0 mm
07:00 AM 64.0°F17.8°C 52.1°F11.2°C 65% 4.1 mph SE6.6 kmh SE 5.4 mph8.7 kmh 29.97 in1014.9 mb 0.00 in0.0 mm 0.00 in0.0 mm 0.00 in0.0 mm
07:05 AM 64.6°F18.1°C 52.1°F11.2°C 64% 4.4 mph E7.1 kmh E 5.4 mph8.7 kmh 29.97 in1014.9 mb 0.00 in0.0 mm 0.00 in0.0 mm 0.00 in0.0 mm
07:10 AM 64.9°F18.3°C 52.1°F11.2°C 63% 4.2 mph E6.8 kmh E 5.4 mph8.7 kmh 29.97 in1014.9 mb 0.00 in0.0 mm 0.00 in0.0 mm 0.00 in0.0 mm
07:15 AM 65.5°F18.6°C 52.6°F11.4°C 63% 3.6 mph SE5.8 kmh SE 4.5 mph7.2 kmh 29.97 in1014.9 mb 0.00 in0.0 mm 0.00 in0.0 mm 0.00 in0.0 mm
07:20 AM 66.0°F18.9°C 52.6°F11.4°C 62% 3.3 mph SE5.3 kmh SE 4.5 mph7.2 kmh 29.97 in1014.9 mb 0.00 in0.0 mm 0.00 in0.0 mm 0.00 in0.0 mm
07:25 AM 66.9°F19.4°C 52.6°F11.4°C 60% 3.9 mph ESE6.3 kmh ESE 6.0 mph9.7 kmh 29.97 in1014.9 mb 0.00 in0.0 mm 0.00 in0.0 mm 0.00 in0.0 mm
07:30 AM 67.3°F19.6°C 52.0°F11.1°C 58% 4.9 mph E7.9 kmh E 6.9 mph11.1 kmh 29.97 in1014.9 mb 0.00 in0.0 mm 0.00 in0.0 mm 0.00 in0.0 mm
07:35 AM 67.5°F19.7°C 52.2°F11.2°C 58% 4.7 mph E7.6 kmh E 6.9 mph11.1 kmh 29.97 in1014.9 mb 0.00 in0.0 mm 0.00 in0.0 mm 0.00 in0.0 mm
07:40 AM 67.8°F19.9°C 52.5°F11.4°C 58% 4.1 mph ENE6.6 kmh ENE 6.0 mph9.7 kmh 29.96 in1014.6 mb 0.00 in0.0 mm 0.00 in0.0 mm 0.00 in0.0 mm
07:45 AM 68.0°F20.0°C 52.2°F11.2°C 57% 4.7 mph E7.6 kmh E 8.3 mph13.4 kmh 29.97 in1014.9 mb 0.00 in0.0 mm 0.00 in0.0 mm 0.00 in0.0 mm
07:50 AM 68.4°F20.2°C 52.1°F11.2°C 56% 5.7 mph E9.2 kmh E 8.3 mph13.4 kmh 29.97 in1014.9 mb 0.00 in0.0 mm 0.00 in0.0 mm 0.00 in0.0 mm
07:55 AM 68.7°F20.4°C 52.4°F11.3°C 56% 6.3 mph NE10.1 kmh NE 8.3 mph13.4 kmh 29.98 in1015.2 mb 0.00 in0.0 mm 0.00 in0.0 mm 0.00 in0.0 mm
08:00 AM 68.9°F20.5°C 52.6°F11.4°C 56% 6.5 mph ENE10.5 kmh ENE 10.7 mph17.2 kmh 29.97 in1014.9 mb 0.00 in0.0 mm 0.00 in0.0 mm 0.00 in0.0 mm
08:05 AM 69.1°F20.6°C 52.3°F11.3°C 55% 6.8 mph E10.9 kmh E 10.7 mph17.2 kmh 29.97 in1014.9 mb 0.00 in0.0 mm 0.00 in0.0 mm 0.00 in0.0 mm
08:10 AM 69.8°F21.0°C 53.4°F11.9°C 56% 6.6 mph E10.6 kmh E 9.2 mph14.8 kmh 29.97 in1014.9 mb 0.00 in0.0 mm 0.00 in0.0 mm 0.00 in0.0 mm
08:15 AM 70.5°F21.4°C 53.6°F12.0°C 55% 4.7 mph NE7.6 kmh NE 7.6 mph12.2 kmh 29.97 in1014.9 mb 0.00 in0.0 mm 0.00 in0.0 mm 0.00 in0.0 mm
08:20 AM 70.9°F21.6°C 53.9°F12.2°C 55% 4.7 mph NE7.6 kmh NE 6.9 mph11.1 kmh 29.97 in1014.9 mb 0.00 in0.0 mm 0.00 in0.0 mm 0.00 in0.0 mm
08:25 AM 71.2°F21.8°C 53.3°F11.8°C 53% 6.5 mph E10.5 kmh E 9.8 mph15.8 kmh 29.97 in1014.9 mb 0.00 in0.0 mm 0.00 in0.0 mm 0.00 in0.0 mm
08:30 AM 71.8°F22.1°C 52.7°F11.5°C 51% 6.6 mph ENE10.6 kmh ENE 9.8 mph15.8 kmh 29.97 in1014.9 mb 0.00 in0.0 mm 0.00 in0.0 mm 0.00 in0.0 mm
08:35 AM 72.5°F22.5°C 52.3°F11.3°C 49% 5.1 mph NE8.2 kmh NE 8.3 mph13.4 kmh 29.96 in1014.6 mb 0.00 in0.0 mm 0.00 in0.0 mm 0.00 in0.0 mm
08:40 AM 73.0°F22.8°C 51.6°F10.9°C 47% 5.6 mph NE9.0 kmh NE 9.8 mph15.8 kmh 29.97 in1014.9 mb 0.00 in0.0 mm 0.00 in0.0 mm 0.00 in0.0 mm
08:45 AM 73.0°F22.8°C 50.5°F10.3°C 45% 6.1 mph N9.8 kmh N 10.7 mph17.2 kmh 29.97 in1014.9 mb 0.00 in0.0 mm 0.00 in0.0 mm 0.00 in0.0 mm
08:50 AM 72.9°F22.7°C 47.8°F8.8°C 41% 8.7 mph NNW14.0 kmh NNW 14.5 mph23.3 kmh 29.97 in1014.9 mb 0.00 in0.0 mm 0.00 in0.0 mm 0.00 in0.0 mm
08:55 AM 73.0°F22.8°C 48.6°F9.2°C 42% 9.3 mph N15.0 kmh N 14.5 mph23.3 kmh 29.96 in1014.6 mb 0.00 in0.0 mm 0.00 in0.0 mm 0.00 in0.0 mm
09:00 AM 73.6°F23.1°C 49.7°F9.8°C 43% 6.2 mph N10.0 kmh N 10.7 mph17.2 kmh 29.96 in1014.6 mb 0.00 in0.0 mm 0.00 in0.0 mm 0.00 in0.0 mm
09:05 AM 73.9°F23.3°C 50.1°F10.1°C 43% 5.0 mph N8.0 kmh N 6.9 mph11.1 kmh 29.96 in1014.6 mb 0.00 in0.0 mm 0.00 in0.0 mm 0.00 in0.0 mm
09:10 AM 74.3°F23.5°C 49.8°F9.9°C 42% 4.0 mph NNW6.4 kmh NNW 6.9 mph11.1 kmh 29.96 in1014.6 mb 0.00 in0.0 mm 0.00 in0.0 mm 0.00 in0.0 mm
09:15 AM 74.5°F23.6°C 49.3°F9.6°C 41% 4.6 mph N7.4 kmh N 6.9 mph11.1 kmh 29.96 in1014.6 mb 0.00 in0.0 mm 0.00 in0.0 mm 0.00 in0.0 mm
09:20 AM 74.8°F23.8°C 49.6°F9.8°C 41% 4.8 mph N7.7 kmh N 8.3 mph13.4 kmh 29.96 in1014.6 mb 0.00 in0.0 mm 0.00 in0.0 mm 0.00 in0.0 mm
09:25 AM 75.2°F24.0°C 49.9°F9.9°C 41% 4.5 mph NNE7.2 kmh NNE 8.3 mph13.4 kmh 29.96 in1014.6 mb 0.00 in0.0 mm 0.00 in0.0 mm 0.00 in0.0 mm
09:30 AM 75.6°F24.2°C 49.6°F9.8°C 40% 4.5 mph NE7.2 kmh NE 8.3 mph13.4 kmh 29.96 in1014.6 mb 0.00 in0.0 mm 0.00 in0.0 mm 0.00 in0.0 mm
09:35 AM 75.7°F24.3°C 49.7°F9.8°C 40% 5.1 mph NE8.2 kmh NE 8.3 mph13.4 kmh 29.96 in1014.6 mb 0.00 in0.0 mm 0.00 in0.0 mm 0.00 in0.0 mm
09:40 AM 75.9°F24.4°C 49.9°F9.9°C 40% 5.6 mph N9.0 kmh N 8.3 mph13.4 kmh 29.96 in1014.6 mb 0.00 in0.0 mm 0.00 in0.0 mm 0.00 in0.0 mm
09:45 AM 75.9°F24.4°C 49.9°F9.9°C 40% 5.3 mph N8.5 kmh N 8.3 mph13.4 kmh 29.95 in1014.2 mb 0.00 in0.0 mm 0.00 in0.0 mm 0.00 in0.0 mm
09:50 AM 76.1°F24.5°C 50.1°F10.1°C 40% 4.9 mph N7.9 kmh N 7.6 mph12.2 kmh 29.95 in1014.2 mb 0.00 in0.0 mm 0.00 in0.0 mm 0.00 in0.0 mm
09:55 AM 76.8°F24.9°C 49.3°F9.6°C 38% 4.1 mph N6.6 kmh N 6.0 mph9.7 kmh 29.94 in1013.9 mb 0.00 in0.0 mm 0.00 in0.0 mm 0.00 in0.0 mm
10:00 AM 77.5°F25.3°C 47.8°F8.8°C 35% 4.4 mph N7.1 kmh N 7.6 mph12.2 kmh 29.94 in1013.9 mb 0.00 in0.0 mm 0.00 in0.0 mm 0.00 in0.0 mm
10:05 AM 77.5°F25.3°C 47.0°F8.3°C 34% 5.3 mph N8.5 kmh N 7.6 mph12.2 kmh 29.93 in1013.5 mb 0.00 in0.0 mm 0.00 in0.0 mm 0.00 in0.0 mm
10:10 AM 77.7°F25.4°C 46.4°F8.0°C 33% 5.2 mph N8.4 kmh N 7.6 mph12.2 kmh 29.94 in1013.9 mb 0.00 in0.0 mm 0.00 in0.0 mm 0.00 in0.0 mm
10:15 AM 77.7°F25.4°C 47.2°F8.4°C 34% 4.0 mph N6.4 kmh N 6.0 mph9.7 kmh 29.94 in1013.9 mb 0.00 in0.0 mm 0.00 in0.0 mm 0.00 in0.0 mm
10:20 AM 78.8°F26.0°C 48.9°F9.4°C 35% 3.7 mph NNE6.0 kmh NNE 6.0 mph9.7 kmh 29.93 in1013.5 mb 0.00 in0.0 mm 0.00 in0.0 mm 0.00 in0.0 mm
10:25 AM 79.7°F26.5°C 48.9°F9.4°C 34% 3.6 mph NNE5.8 kmh NNE 7.6 mph12.2 kmh 29.93 in1013.5 mb 0.00 in0.0 mm 0.00 in0.0 mm 0.00 in0.0 mm
10:30 AM 79.2°F26.2°C 46.8°F8.2°C 32% 5.0 mph NNW8.0 kmh NNW 7.6 mph12.2 kmh 29.93 in1013.5 mb 0.00 in0.0 mm 0.00 in0.0 mm 0.00 in0.0 mm
10:35 AM 79.3°F26.3°C 47.8°F8.8°C 33% 5.6 mph NW9.0 kmh NW 9.2 mph14.8 kmh 29.93 in1013.5 mb 0.00 in0.0 mm 0.00 in0.0 mm 0.00 in0.0 mm
10:40 AM 79.9°F26.6°C 48.2°F9.0°C 33% 5.5 mph N8.9 kmh N 11.4 mph18.3 kmh 29.93 in1013.5 mb 0.00 in0.0 mm 0.00 in0.0 mm 0.00 in0.0 mm
10:45 AM 79.9°F26.6°C 48.2°F9.0°C 33% 5.6 mph N9.0 kmh N 11.4 mph18.3 kmh 29.93 in1013.5 mb 0.00 in0.0 mm 0.00 in0.0 mm 0.00 in0.0 mm
10:50 AM 80.2°F26.8°C 49.4°F9.7°C 34% 5.0 mph N8.0 kmh N 8.3 mph13.4 kmh 29.93 in1013.5 mb 0.00 in0.0 mm 0.00 in0.0 mm 0.00 in0.0 mm
10:55 AM 80.6°F27.0°C 49.7°F9.8°C 34% 4.5 mph NE7.2 kmh NE 8.3 mph13.4 kmh 29.93 in1013.5 mb 0.00 in0.0 mm 0.00 in0.0 mm 0.00 in0.0 mm
11:00 AM 81.5°F27.5°C 48.8°F9.3°C 32% 4.5 mph NNW7.2 kmh NNW 8.3 mph13.4 kmh 29.93 in1013.5 mb 0.00 in0.0 mm 0.00 in0.0 mm 0.00 in0.0 mm
11:05 AM 81.7°F27.6°C 48.1°F8.9°C 31% 5.5 mph NW8.9 kmh NW 8.3 mph13.4 kmh 29.93 in1013.5 mb 0.00 in0.0 mm 0.00 in0.0 mm 0.00 in0.0 mm
11:10 AM 81.3°F27.4°C 47.8°F8.8°C 31% 4.5 mph NNW7.2 kmh NNW 8.3 mph13.4 kmh 29.92 in1013.2 mb 0.00 in0.0 mm 0.00 in0.0 mm 0.00 in0.0 mm
11:15 AM 81.7°F27.6°C 48.1°F8.9°C 31% 3.4 mph NW5.5 kmh NW 5.4 mph8.7 kmh 29.92 in1013.2 mb 0.00 in0.0 mm 0.00 in0.0 mm 0.00 in0.0 mm
11:20 AM 82.6°F28.1°C 48.9°F9.4°C 31% 4.0 mph N6.4 kmh N 6.0 mph9.7 kmh 29.92 in1013.2 mb 0.00 in0.0 mm 0.00 in0.0 mm 0.00 in0.0 mm
11:25 AM 82.4°F28.0°C 48.8°F9.3°C 31% 5.0 mph N8.0 kmh N 8.3 mph13.4 kmh 29.91 in1012.9 mb 0.00 in0.0 mm 0.00 in0.0 mm 0.00 in0.0 mm
11:30 AM 82.2°F27.9°C 47.7°F8.7°C 30% 6.4 mph N10.3 kmh N 9.2 mph14.8 kmh 29.91 in1012.9 mb 0.00 in0.0 mm 0.00 in0.0 mm 0.00 in0.0 mm
11:35 AM 82.0°F27.8°C 48.5°F9.2°C 31% 5.6 mph NW9.0 kmh NW 9.2 mph14.8 kmh 29.91 in1012.9 mb 0.00 in0.0 mm 0.00 in0.0 mm 0.00 in0.0 mm
11:40 AM 82.4°F28.0°C 48.8°F9.3°C 31% 4.4 mph NNW7.1 kmh NNW 6.0 mph9.7 kmh 29.91 in1012.9 mb 0.00 in0.0 mm 0.00 in0.0 mm 0.00 in0.0 mm
11:45 AM 82.4°F28.0°C 48.8°F9.3°C 31% 4.4 mph N7.1 kmh N 7.6 mph12.2 kmh 29.91 in1012.9 mb 0.00 in0.0 mm 0.00 in0.0 mm 0.00 in0.0 mm
11:50 AM 82.4°F28.0°C 48.8°F9.3°C 31% 4.1 mph N6.6 kmh N 7.6 mph12.2 kmh 29.90 in1012.5 mb 0.00 in0.0 mm 0.00 in0.0 mm 0.00 in0.0 mm
11:55 AM 82.8°F28.2°C 48.2°F9.0°C 30% 4.1 mph NE6.6 kmh NE 6.0 mph9.7 kmh 29.90 in1012.5 mb 0.00 in0.0 mm 0.00 in0.0 mm 0.00 in0.0 mm
12:00 PM 82.9°F28.3°C 47.5°F8.6°C 29% 3.5 mph NW5.6 kmh NW 6.0 mph9.7 kmh 29.90 in1012.5 mb 0.00 in0.0 mm 0.00 in0.0 mm 0.00 in0.0 mm
12:05 PM 83.3°F28.5°C 46.8°F8.2°C 28% 2.9 mph NW4.7 kmh NW 4.5 mph7.2 kmh 29.89 in1012.2 mb 0.00 in0.0 mm 0.00 in0.0 mm 0.00 in0.0 mm
12:10 PM 83.7°F28.7°C 48.1°F8.9°C 29% 2.5 mph NW4.0 kmh NW 3.8 mph6.1 kmh 29.89 in1012.2 mb 0.00 in0.0 mm 0.00 in0.0 mm 0.00 in0.0 mm
12:15 PM 84.2°F29.0°C 47.6°F8.7°C 28% 3.1 mph W5.0 kmh W 6.0 mph9.7 kmh 29.89 in1012.2 mb 0.00 in0.0 mm 0.00 in0.0 mm 0.00 in0.0 mm
12:20 PM 84.7°F29.3°C 44.0°F6.7°C 24% 4.4 mph NW7.1 kmh NW 6.9 mph11.1 kmh 29.89 in1012.2 mb 0.00 in0.0 mm 0.00 in0.0 mm 0.00 in0.0 mm
12:25 PM 84.2°F29.0°C 44.6°F7.0°C 25% 4.8 mph NW7.7 kmh NW 6.9 mph11.1 kmh 29.89 in1012.2 mb 0.00 in0.0 mm 0.00 in0.0 mm 0.00 in0.0 mm
12:30 PM 84.2°F29.0°C 43.5°F6.4°C 24% 5.7 mph NW9.2 kmh NW 11.4 mph18.3 kmh 29.89 in1012.2 mb 0.00 in0.0 mm 0.00 in0.0 mm 0.00 in0.0 mm
12:35 PM 83.8°F28.8°C 46.3°F7.9°C 27% 6.0 mph NNW9.7 kmh NNW 11.4 mph18.3 kmh 29.88 in1011.9 mb 0.00 in0.0 mm 0.00 in0.0 mm 0.00 in0.0 mm
12:40 PM 84.6°F29.2°C 43.8°F6.6°C 24% 6.0 mph NNW9.7 kmh NNW 9.8 mph15.8 kmh 29.88 in1011.9 mb 0.00 in0.0 mm 0.00 in0.0 mm 0.00 in0.0 mm
12:45 PM 84.4°F29.1°C 44.8°F7.1°C 25% 7.2 mph NNW11.6 kmh NNW 9.8 mph15.8 kmh 29.88 in1011.9 mb 0.00 in0.0 mm 0.00 in0.0 mm 0.00 in0.0 mm
12:50 PM 84.2°F29.0°C 45.6°F7.6°C 26% 6.4 mph N10.3 kmh N 9.8 mph15.8 kmh 29.87 in1011.5 mb 0.00 in0.0 mm 0.00 in0.0 mm 0.00 in0.0 mm
12:55 PM 83.8°F28.8°C 44.3°F6.8°C 25% 4.7 mph N7.6 kmh N 6.9 mph11.1 kmh 29.87 in1011.5 mb 0.00 in0.0 mm 0.00 in0.0 mm 0.00 in0.0 mm
01:00 PM 84.2°F29.0°C 45.6°F7.6°C 26% 4.8 mph NNW7.7 kmh NNW 7.6 mph12.2 kmh 29.87 in1011.5 mb 0.00 in0.0 mm 0.00 in0.0 mm 0.00 in0.0 mm
01:05 PM 85.6°F29.8°C 48.8°F9.3°C 28% 5.6 mph NE9.0 kmh NE 7.6 mph12.2 kmh 29.86 in1011.2 mb 0.00 in0.0 mm 0.00 in0.0 mm 0.00 in0.0 mm
01:10 PM 86.5°F30.3°C 43.2°F6.2°C 22% 4.9 mph NE7.9 kmh NE 7.6 mph12.2 kmh 29.86 in1011.2 mb 0.00 in0.0 mm 0.00 in0.0 mm 0.00 in0.0 mm
01:15 PM 86.4°F30.2°C 41.9°F5.5°C 21% 3.6 mph NW5.8 kmh NW 6.0 mph9.7 kmh 29.86 in1011.2 mb 0.00 in0.0 mm 0.00 in0.0 mm 0.00 in0.0 mm
01:20 PM 86.9°F30.5°C 43.5°F6.4°C 22% 3.1 mph NW5.0 kmh NW 6.0 mph9.7 kmh 29.86 in1011.2 mb 0.00 in0.0 mm 0.00 in0.0 mm 0.00 in0.0 mm
01:25 PM 87.4°F30.8°C 45.1°F7.3°C 23% 3.6 mph NW5.8 kmh NW 8.3 mph13.4 kmh 29.86 in1011.2 mb 0.00 in0.0 mm 0.00 in0.0 mm 0.00 in0.0 mm
01:30 PM 87.8°F31.0°C 43.1°F6.2°C 21% 5.0 mph WNW8.0 kmh WNW 8.3 mph13.4 kmh 29.85 in1010.8 mb 0.00 in0.0 mm 0.00 in0.0 mm 0.00 in0.0 mm
01:35 PM 88.2°F31.2°C 45.7°F7.6°C 23% 5.2 mph W8.4 kmh W 8.3 mph13.4 kmh 29.85 in1010.8 mb 0.00 in0.0 mm 0.00 in0.0 mm 0.00 in0.0 mm
01:40 PM 88.2°F31.2°C 46.9°F8.3°C 24% 5.2 mph W8.4 kmh W 8.3 mph13.4 kmh 29.85 in1010.8 mb 0.00 in0.0 mm 0.00 in0.0 mm 0.00 in0.0 mm
01:45 PM 87.6°F30.9°C 45.3°F7.4°C 23% 4.8 mph NW7.7 kmh NW 8.3 mph13.4 kmh 29.84 in1010.5 mb 0.00 in0.0 mm 0.00 in0.0 mm 0.00 in0.0 mm
01:50 PM 87.4°F30.8°C 42.8°F6.0°C 21% 4.8 mph NW7.7 kmh NW 7.6 mph12.2 kmh 29.84 in1010.5 mb 0.00 in0.0 mm 0.00 in0.0 mm 0.00 in0.0 mm
01:55 PM 87.1°F30.6°C 42.5°F5.8°C 21% 5.9 mph NW9.5 kmh NW 7.6 mph12.2 kmh 29.84 in1010.5 mb 0.00 in0.0 mm 0.00 in0.0 mm 0.00 in0.0 mm
02:00 PM 87.1°F30.6°C 43.7°F6.5°C 22% 5.5 mph NW8.9 kmh NW 7.6 mph12.2 kmh 29.83 in1010.2 mb 0.00 in0.0 mm 0.00 in0.0 mm 0.00 in0.0 mm
02:05 PM 87.6°F30.9°C 44.1°F6.7°C 22% 3.6 mph NW5.8 kmh NW 7.6 mph12.2 kmh 29.83 in1010.2 mb 0.00 in0.0 mm 0.00 in0.0 mm 0.00 in0.0 mm
02:10 PM 88.0°F31.1°C 46.7°F8.2°C 24% 3.6 mph WSW5.8 kmh WSW 5.4 mph8.7 kmh 29.83 in1010.2 mb 0.00 in0.0 mm 0.00 in0.0 mm 0.00 in0.0 mm
02:15 PM 89.4°F31.9°C 52.1°F11.2°C 28% 4.7 mph S7.6 kmh S 6.0 mph9.7 kmh 29.82 in1009.8 mb 0.00 in0.0 mm 0.00 in0.0 mm 0.00 in0.0 mm
02:20 PM 90.5°F32.5°C 48.8°F9.3°C 24% 4.0 mph NE6.4 kmh NE 6.0 mph9.7 kmh 29.82 in1009.8 mb 0.00 in0.0 mm 0.00 in0.0 mm 0.00 in0.0 mm
02:25 PM 90.9°F32.7°C 49.1°F9.5°C 24% 3.6 mph SE5.8 kmh SE 6.0 mph9.7 kmh 29.82 in1009.8 mb 0.00 in0.0 mm 0.00 in0.0 mm 0.00 in0.0 mm
02:30 PM 90.7°F32.6°C 49.0°F9.4°C 24% 4.0 mph E6.4 kmh E 6.0 mph9.7 kmh 29.82 in1009.8 mb 0.00 in0.0 mm 0.00 in0.0 mm 0.00 in0.0 mm
02:35 PM 90.3°F32.4°C 47.6°F8.7°C 23% 3.5 mph NE5.6 kmh NE 6.0 mph9.7 kmh 29.81 in1009.5 mb 0.00 in0.0 mm 0.00 in0.0 mm 0.00 in0.0 mm
02:40 PM 89.2°F31.8°C 47.8°F8.8°C 24% 3.9 mph NW6.3 kmh NW 6.0 mph9.7 kmh 29.81 in1009.5 mb 0.00 in0.0 mm 0.00 in0.0 mm 0.00 in0.0 mm
02:45 PM 88.9°F31.6°C 46.3°F7.9°C 23% 5.7 mph W9.2 kmh W 8.3 mph13.4 kmh 29.81 in1009.5 mb 0.00 in0.0 mm 0.00 in0.0 mm 0.00 in0.0 mm
02:50 PM 89.8°F32.1°C 48.2°F9.0°C 24% 5.2 mph W8.4 kmh W 8.3 mph13.4 kmh 29.80 in1009.1 mb 0.00 in0.0 mm 0.00 in0.0 mm 0.00 in0.0 mm
02:55 PM 89.4°F31.9°C 46.8°F8.2°C 23% 4.8 mph NW7.7 kmh NW 9.2 mph14.8 kmh 29.81 in1009.5 mb 0.00 in0.0 mm 0.00 in0.0 mm 0.00 in0.0 mm
03:00 PM 89.6°F32.0°C 46.9°F8.3°C 23% 4.2 mph NW6.8 kmh NW 9.2 mph14.8 kmh 29.80 in1009.1 mb 0.00 in0.0 mm 0.00 in0.0 mm 0.00 in0.0 mm
03:05 PM 90.3°F32.4°C 48.7°F9.3°C 24% 3.0 mph WSW4.8 kmh WSW 5.4 mph8.7 kmh 29.80 in1009.1 mb 0.00 in0.0 mm 0.00 in0.0 mm 0.00 in0.0 mm
03:10 PM 89.4°F31.9°C 45.6°F7.6°C 22% 3.4 mph WNW5.5 kmh WNW 5.4 mph8.7 kmh 29.80 in1009.1 mb 0.00 in0.0 mm 0.00 in0.0 mm 0.00 in0.0 mm
03:15 PM 89.6°F32.0°C 46.9°F8.3°C 23% 3.4 mph NW5.5 kmh NW 6.9 mph11.1 kmh 29.80 in1009.1 mb 0.00 in0.0 mm 0.00 in0.0 mm 0.00 in0.0 mm
03:20 PM 89.4°F31.9°C 46.8°F8.2°C 23% 3.4 mph NW5.5 kmh NW 6.9 mph11.1 kmh 29.79 in1008.8 mb 0.00 in0.0 mm 0.00 in0.0 mm 0.00 in0.0 mm
03:25 PM 89.6°F32.0°C 48.1°F8.9°C 24% 3.3 mph NW5.3 kmh NW 6.9 mph11.1 kmh 29.79 in1008.8 mb 0.00 in0.0 mm 0.00 in0.0 mm 0.00 in0.0 mm
03:30 PM 89.8°F32.1°C 47.1°F8.4°C 23% 3.9 mph NW6.3 kmh NW 6.0 mph9.7 kmh 29.79 in1008.8 mb 0.00 in0.0 mm 0.00 in0.0 mm 0.00 in0.0 mm
03:35 PM 89.8°F32.1°C 47.1°F8.4°C 23% 4.9 mph NW7.9 kmh NW 6.9 mph11.1 kmh 29.79 in1008.8 mb 0.00 in0.0 mm 0.00 in0.0 mm 0.00 in0.0 mm
03:40 PM 89.2°F31.8°C 46.6°F8.1°C 23% 5.7 mph W9.2 kmh W 8.3 mph13.4 kmh 29.79 in1008.8 mb 0.00 in0.0 mm 0.00 in0.0 mm 0.00 in0.0 mm
03:45 PM 88.7°F31.5°C 46.2°F7.9°C 23% 6.5 mph NW10.5 kmh NW 8.3 mph13.4 kmh 29.78 in1008.5 mb 0.00 in0.0 mm 0.00 in0.0 mm 0.00 in0.0 mm
03:50 PM 89.1°F31.7°C 46.5°F8.1°C 23% 4.9 mph NNW7.9 kmh NNW 6.9 mph11.1 kmh 29.78 in1008.5 mb 0.00 in0.0 mm 0.00 in0.0 mm 0.00 in0.0 mm
03:55 PM 88.9°F31.6°C 46.3°F7.9°C 23% 3.5 mph NW5.6 kmh NW 4.5 mph7.2 kmh 29.79 in1008.8 mb 0.00 in0.0 mm 0.00 in0.0 mm 0.00 in0.0 mm
04:00 PM 89.1°F31.7°C 46.5°F8.1°C 23% 3.7 mph WSW6.0 kmh WSW 4.5 mph7.2 kmh 29.78 in1008.5 mb 0.00 in0.0 mm 0.00 in0.0 mm 0.00 in0.0 mm
04:05 PM 89.4°F31.9°C 46.8°F8.2°C 23% 3.7 mph WSW6.0 kmh WSW 5.4 mph8.7 kmh 29.78 in1008.5 mb 0.00 in0.0 mm 0.00 in0.0 mm 0.00 in0.0 mm
04:10 PM 89.2°F31.8°C 46.6°F8.1°C 23% 3.2 mph NW5.1 kmh NW 5.4 mph8.7 kmh 29.78 in1008.5 mb 0.00 in0.0 mm 0.00 in0.0 mm 0.00 in0.0 mm
04:15 PM 89.8°F32.1°C 47.1°F8.4°C 23% 2.7 mph N4.3 kmh N 3.8 mph6.1 kmh 29.78 in1008.5 mb 0.00 in0.0 mm 0.00 in0.0 mm 0.00 in0.0 mm
04:20 PM 89.8°F32.1°C 47.1°F8.4°C 23% 3.2 mph N5.1 kmh N 4.5 mph7.2 kmh 29.77 in1008.1 mb 0.00 in0.0 mm 0.00 in0.0 mm 0.00 in0.0 mm
04:25 PM 90.3°F32.4°C 46.4°F8.0°C 22% 3.6 mph NW5.8 kmh NW 5.4 mph8.7 kmh 29.78 in1008.5 mb 0.00 in0.0 mm 0.00 in0.0 mm 0.00 in0.0 mm
04:30 PM 90.5°F32.5°C 46.5°F8.1°C 22% 4.9 mph SW7.9 kmh SW 6.9 mph11.1 kmh 29.78 in1008.5 mb 0.00 in0.0 mm 0.00 in0.0 mm 0.00 in0.0 mm
04:35 PM 90.3°F32.4°C 45.1°F7.3°C 21% 4.7 mph SW7.6 kmh SW 6.9 mph11.1 kmh 29.77 in1008.1 mb 0.00 in0.0 mm 0.00 in0.0 mm 0.00 in0.0 mm
04:40 PM 90.1°F32.3°C 45.0°F7.2°C 21% 3.9 mph N6.3 kmh N 6.0 mph9.7 kmh 29.77 in1008.1 mb 0.00 in0.0 mm 0.00 in0.0 mm 0.00 in0.0 mm
04:45 PM 90.1°F32.3°C 45.0°F7.2°C 21% 4.6 mph NNE7.4 kmh NNE 6.0 mph9.7 kmh 29.77 in1008.1 mb 0.00 in0.0 mm 0.00 in0.0 mm 0.00 in0.0 mm
04:50 PM 90.3°F32.4°C 45.1°F7.3°C 21% 4.6 mph NE7.4 kmh NE 5.4 mph8.7 kmh 29.77 in1008.1 mb 0.00 in0.0 mm 0.00 in0.0 mm 0.00 in0.0 mm
04:55 PM 90.3°F32.4°C 45.1°F7.3°C 21% 4.6 mph NE7.4 kmh NE 6.0 mph9.7 kmh 29.77 in1008.1 mb 0.00 in0.0 mm 0.00 in0.0 mm 0.00 in0.0 mm
05:00 PM 91.0°F32.8°C 44.5°F6.9°C 20% 4.7 mph ENE7.6 kmh ENE 6.0 mph9.7 kmh 29.76 in1007.8 mb 0.00 in0.0 mm 0.00 in0.0 mm 0.00 in0.0 mm
05:05 PM 90.3°F32.4°C 41.1°F5.1°C 18% 4.5 mph ENE7.2 kmh ENE 5.4 mph8.7 kmh 29.77 in1008.1 mb 0.00 in0.0 mm 0.00 in0.0 mm 0.00 in0.0 mm
05:10 PM 89.1°F31.7°C 41.5°F5.3°C 19% 3.1 mph NE5.0 kmh NE 4.5 mph7.2 kmh 29.77 in1008.1 mb 0.00 in0.0 mm 0.00 in0.0 mm 0.00 in0.0 mm
05:15 PM 88.3°F31.3°C 42.2°F5.7°C 20% 3.5 mph WNW5.6 kmh WNW 11.4 mph18.3 kmh 29.76 in1007.8 mb 0.00 in0.0 mm 0.00 in0.0 mm 0.00 in0.0 mm
05:20 PM 87.1°F30.6°C 39.9°F4.4°C 19% 5.3 mph NW8.5 kmh NW 11.4 mph18.3 kmh 29.77 in1008.1 mb 0.00 in0.0 mm 0.00 in0.0 mm 0.00 in0.0 mm
05:25 PM 86.4°F30.2°C 39.3°F4.1°C 19% 5.6 mph NE9.0 kmh NE 9.2 mph14.8 kmh 29.77 in1008.1 mb 0.00 in0.0 mm 0.00 in0.0 mm 0.00 in0.0 mm
05:30 PM 86.0°F30.0°C 41.6°F5.3°C 21% 4.4 mph NE7.1 kmh NE 7.6 mph12.2 kmh 29.77 in1008.1 mb 0.00 in0.0 mm 0.00 in0.0 mm 0.00 in0.0 mm
05:35 PM 85.3°F29.6°C 43.3°F6.3°C 23% 3.3 mph NE5.3 kmh NE 6.0 mph9.7 kmh 29.77 in1008.1 mb 0.00 in0.0 mm 0.00 in0.0 mm 0.00 in0.0 mm
05:40 PM 84.4°F29.1°C 44.8°F7.1°C 25% 4.3 mph ENE6.9 kmh ENE 6.9 mph11.1 kmh 29.77 in1008.1 mb 0.00 in0.0 mm 0.00 in0.0 mm 0.00 in0.0 mm
05:45 PM 83.8°F28.8°C 44.3°F6.8°C 25% 5.8 mph ENE9.3 kmh ENE 9.2 mph14.8 kmh 29.77 in1008.1 mb 0.00 in0.0 mm 0.00 in0.0 mm 0.00 in0.0 mm
05:50 PM 83.3°F28.5°C 43.9°F6.6°C 25% 6.2 mph ENE10.0 kmh ENE 9.2 mph14.8 kmh 29.76 in1007.8 mb 0.00 in0.0 mm 0.00 in0.0 mm 0.00 in0.0 mm
05:55 PM 83.1°F28.4°C 43.7°F6.5°C 25% 6.0 mph E9.7 kmh E 8.3 mph13.4 kmh 29.77 in1008.1 mb 0.00 in0.0 mm 0.00 in0.0 mm 0.00 in0.0 mm
06:00 PM 82.8°F28.2°C 42.3°F5.7°C 24% 5.8 mph NE9.3 kmh NE 8.3 mph13.4 kmh 29.77 in1008.1 mb 0.00 in0.0 mm 0.00 in0.0 mm 0.00 in0.0 mm
06:05 PM 82.6°F28.1°C 43.2°F6.2°C 25% 5.5 mph NE8.9 kmh NE 6.9 mph11.1 kmh 29.76 in1007.8 mb 0.00 in0.0 mm 0.00 in0.0 mm 0.00 in0.0 mm
06:10 PM 82.4°F28.0°C 43.1°F6.2°C 25% 4.7 mph NE7.6 kmh NE 6.9 mph11.1 kmh 29.77 in1008.1 mb 0.00 in0.0 mm 0.00 in0.0 mm 0.00 in0.0 mm
06:15 PM 82.0°F27.8°C 44.8°F7.1°C 27% 3.6 mph NE5.8 kmh NE 6.0 mph9.7 kmh 29.77 in1008.1 mb 0.00 in0.0 mm 0.00 in0.0 mm 0.00 in0.0 mm
06:20 PM 81.7°F27.6°C 45.4°F7.4°C 28% 4.4 mph NE7.1 kmh NE 6.9 mph11.1 kmh 29.77 in1008.1 mb 0.00 in0.0 mm 0.00 in0.0 mm 0.00 in0.0 mm
06:25 PM 81.1°F27.3°C 45.9°F7.7°C 29% 4.6 mph NE7.4 kmh NE 6.9 mph11.1 kmh 29.77 in1008.1 mb 0.00 in0.0 mm 0.00 in0.0 mm 0.00 in0.0 mm
06:30 PM 81.0°F27.2°C 45.8°F7.7°C 29% 5.2 mph E8.4 kmh E 7.6 mph12.2 kmh 29.77 in1008.1 mb 0.00 in0.0 mm 0.00 in0.0 mm 0.00 in0.0 mm
06:35 PM 80.6°F27.0°C 46.3°F7.9°C 30% 5.7 mph E9.2 kmh E 7.6 mph12.2 kmh 29.77 in1008.1 mb 0.00 in0.0 mm 0.00 in0.0 mm 0.00 in0.0 mm
06:40 PM 80.4°F26.9°C 46.2°F7.9°C 30% 4.6 mph ENE7.4 kmh ENE 6.0 mph9.7 kmh 29.77 in1008.1 mb 0.00 in0.0 mm 0.00 in0.0 mm 0.00 in0.0 mm
06:45 PM 80.4°F26.9°C 46.2°F7.9°C 30% 3.9 mph NE6.3 kmh NE 6.0 mph9.7 kmh 29.77 in1008.1 mb 0.00 in0.0 mm 0.00 in0.0 mm 0.00 in0.0 mm
06:50 PM 80.4°F26.9°C 47.1°F8.4°C 31% 3.3 mph NE5.3 kmh NE 3.8 mph6.1 kmh 29.77 in1008.1 mb 0.00 in0.0 mm 0.00 in0.0 mm 0.00 in0.0 mm
06:55 PM 80.2°F26.8°C 46.9°F8.3°C 31% 3.1 mph NNE5.0 kmh NNE 4.5 mph7.2 kmh 29.77 in1008.1 mb 0.00 in0.0 mm 0.00 in0.0 mm 0.00 in0.0 mm
07:00 PM 80.1°F26.7°C 47.6°F8.7°C 32% 2.8 mph N4.5 kmh N 4.5 mph7.2 kmh 29.77 in1008.1 mb 0.00 in0.0 mm 0.00 in0.0 mm 0.00 in0.0 mm
07:05 PM 79.9°F26.6°C 47.4°F8.6°C 32% 2.2 mph NNW3.5 kmh NNW 3.1 mph5.0 kmh 29.77 in1008.1 mb 0.00 in0.0 mm 0.00 in0.0 mm 0.00 in0.0 mm
07:10 PM 79.9°F26.6°C 47.4°F8.6°C 32% 1.6 mph NW2.6 kmh NW 3.1 mph5.0 kmh 29.77 in1008.1 mb 0.00 in0.0 mm 0.00 in0.0 mm 0.00 in0.0 mm
07:15 PM 79.5°F26.4°C 47.1°F8.4°C 32% 1.3 mph N2.1 kmh N 2.2 mph3.5 kmh 29.77 in1008.1 mb 0.00 in0.0 mm 0.00 in0.0 mm 0.00 in0.0 mm
07:20 PM 79.3°F26.3°C 47.0°F8.3°C 32% 1.1 mph NNW1.8 kmh NNW 2.2 mph3.5 kmh 29.77 in1008.1 mb 0.00 in0.0 mm 0.00 in0.0 mm 0.00 in0.0 mm
07:25 PM 79.0°F26.1°C 44.9°F7.2°C 30% 1.4 mph NW2.3 kmh NW 3.8 mph6.1 kmh 29.77 in1008.1 mb 0.00 in0.0 mm 0.00 in0.0 mm 0.00 in0.0 mm
07:30 PM 78.8°F26.0°C 44.8°F7.1°C 30% 1.7 mph N2.7 kmh N 3.8 mph6.1 kmh 29.78 in1008.5 mb 0.00 in0.0 mm 0.00 in0.0 mm 0.00 in0.0 mm
07:35 PM 78.6°F25.9°C 44.6°F7.0°C 30% 1.3 mph NNW2.1 kmh NNW 2.2 mph3.5 kmh 29.78 in1008.5 mb 0.00 in0.0 mm 0.00 in0.0 mm 0.00 in0.0 mm
07:40 PM 78.4°F25.8°C 45.3°F7.4°C 31% 0.6 mph NW1.0 kmh NW 1.6 mph2.6 kmh 29.78 in1008.5 mb 0.00 in0.0 mm 0.00 in0.0 mm 0.00 in0.0 mm
07:45 PM 78.1°F25.6°C 45.0°F7.2°C 31% 0.3 mph S0.5 kmh S 1.6 mph2.6 kmh 29.78 in1008.5 mb 0.00 in0.0 mm 0.00 in0.0 mm 0.00 in0.0 mm
07:50 PM 77.7°F25.4°C 44.7°F7.1°C 31% 0.4 mph S0.6 kmh S 1.6 mph2.6 kmh 29.78 in1008.5 mb 0.00 in0.0 mm 0.00 in0.0 mm 0.00 in0.0 mm
07:55 PM 77.7°F25.4°C 45.5°F7.5°C 32% 0.9 mph S1.4 kmh S 1.6 mph2.6 kmh 29.78 in1008.5 mb 0.00 in0.0 mm 0.00 in0.0 mm 0.00 in0.0 mm
08:00 PM 77.5°F25.3°C 46.2°F7.9°C 33% 1.3 mph S2.1 kmh S 1.6 mph2.6 kmh 29.78 in1008.5 mb 0.00 in0.0 mm 0.00 in0.0 mm 0.00 in0.0 mm
08:05 PM 77.4°F25.2°C 46.8°F8.2°C 34% 1.2 mph S1.9 kmh S 1.6 mph2.6 kmh 29.78 in1008.5 mb 0.00 in0.0 mm 0.00 in0.0 mm 0.00 in0.0 mm
08:10 PM 77.2°F25.1°C 48.2°F9.0°C 36% 1.1 mph S1.8 kmh S 1.6 mph2.6 kmh 29.78 in1008.5 mb 0.00 in0.0 mm 0.00 in0.0 mm 0.00 in0.0 mm
08:15 PM 76.8°F24.9°C 48.6°F9.2°C 37% 0.7 mph S1.1 kmh S 1.6 mph2.6 kmh 29.78 in1008.5 mb 0.00 in0.0 mm 0.00 in0.0 mm 0.00 in0.0 mm
08:20 PM 76.6°F24.8°C 47.7°F8.7°C 36% 0.5 mph S0.8 kmh S 1.6 mph2.6 kmh 29.78 in1008.5 mb 0.00 in0.0 mm 0.00 in0.0 mm 0.00 in0.0 mm
08:25 PM 76.5°F24.7°C 47.6°F8.7°C 36% 0.4 mph S0.6 kmh S 1.6 mph2.6 kmh 29.79 in1008.8 mb 0.00 in0.0 mm 0.00 in0.0 mm 0.00 in0.0 mm
08:30 PM 76.3°F24.6°C 48.8°F9.3°C 38% 0.4 mph S0.6 kmh S 1.6 mph2.6 kmh 29.79 in1008.8 mb 0.00 in0.0 mm 0.00 in0.0 mm 0.00 in0.0 mm
08:35 PM 76.1°F24.5°C 48.7°F9.3°C 38% 0.6 mph S1.0 kmh S 1.6 mph2.6 kmh 29.79 in1008.8 mb 0.00 in0.0 mm 0.00 in0.0 mm 0.00 in0.0 mm
08:40 PM 75.9°F24.4°C 49.2°F9.6°C 39% 1.1 mph S1.8 kmh S 2.2 mph3.5 kmh 29.79 in1008.8 mb 0.00 in0.0 mm 0.00 in0.0 mm 0.00 in0.0 mm
08:45 PM 75.7°F24.3°C 49.1°F9.5°C 39% 1.8 mph S2.9 kmh S 2.2 mph3.5 kmh 29.79 in1008.8 mb 0.00 in0.0 mm 0.00 in0.0 mm 0.00 in0.0 mm
08:50 PM 75.6°F24.2°C 48.9°F9.4°C 39% 2.3 mph S3.7 kmh S 3.1 mph5.0 kmh 29.79 in1008.8 mb 0.00 in0.0 mm 0.00 in0.0 mm 0.00 in0.0 mm
08:55 PM 75.4°F24.1°C 50.1°F10.1°C 41% 2.3 mph S3.7 kmh S 3.1 mph5.0 kmh 29.79 in1008.8 mb 0.00 in0.0 mm 0.00 in0.0 mm 0.00 in0.0 mm
09:00 PM 75.2°F24.0°C 49.9°F9.9°C 41% 2.1 mph N3.4 kmh N 2.2 mph3.5 kmh 29.79 in1008.8 mb 0.00 in0.0 mm 0.00 in0.0 mm 0.00 in0.0 mm
09:05 PM 75.0°F23.9°C 49.8°F9.9°C 41% 2.4 mph N3.9 kmh N 3.1 mph5.0 kmh 29.79 in1008.8 mb 0.00 in0.0 mm 0.00 in0.0 mm 0.00 in0.0 mm
09:10 PM 75.0°F23.9°C 49.8°F9.9°C 41% 2.4 mph NE3.9 kmh NE 3.1 mph5.0 kmh 29.79 in1008.8 mb 0.00 in0.0 mm 0.00 in0.0 mm 0.00 in0.0 mm
09:15 PM 74.7°F23.7°C 49.4°F9.7°C 41% 2.1 mph S3.4 kmh S 3.1 mph5.0 kmh 29.79 in1008.8 mb 0.00 in0.0 mm 0.00 in0.0 mm 0.00 in0.0 mm
09:20 PM 74.5°F23.6°C 49.9°F9.9°C 42% 2.0 mph S3.2 kmh S 2.2 mph3.5 kmh 29.79 in1008.8 mb 0.00 in0.0 mm 0.00 in0.0 mm 0.00 in0.0 mm
09:25 PM 74.3°F23.5°C 49.8°F9.9°C 42% 2.3 mph S3.7 kmh S 3.1 mph5.0 kmh 29.79 in1008.8 mb 0.00 in0.0 mm 0.00 in0.0 mm 0.00 in0.0 mm
09:30 PM 73.9°F23.3°C 49.4°F9.7°C 42% 2.4 mph S3.9 kmh S 3.1 mph5.0 kmh 29.79 in1008.8 mb 0.00 in0.0 mm 0.00 in0.0 mm 0.00 in0.0 mm
09:35 PM 73.9°F23.3°C 49.4°F9.7°C 42% 2.6 mph S4.2 kmh S 3.8 mph6.1 kmh 29.80 in1009.1 mb 0.00 in0.0 mm 0.00 in0.0 mm 0.00 in0.0 mm
09:40 PM 73.8°F23.2°C 49.9°F9.9°C 43% 2.4 mph S3.9 kmh S 3.8 mph6.1 kmh 29.80 in1009.1 mb 0.00 in0.0 mm 0.00 in0.0 mm 0.00 in0.0 mm
09:45 PM 73.4°F23.0°C 50.2°F10.1°C 44% 1.9 mph S3.1 kmh S 2.2 mph3.5 kmh 29.79 in1008.8 mb 0.00 in0.0 mm 0.00 in0.0 mm 0.00 in0.0 mm
09:50 PM 73.0°F22.8°C 49.9°F9.9°C 44% 2.0 mph S3.2 kmh S 3.1 mph5.0 kmh 29.80 in1009.1 mb 0.00 in0.0 mm 0.00 in0.0 mm 0.00 in0.0 mm
09:55 PM 72.9°F22.7°C 49.7°F9.8°C 44% 3.0 mph ENE4.8 kmh ENE 3.8 mph6.1 kmh 29.80 in1009.1 mb 0.00 in0.0 mm 0.00 in0.0 mm 0.00 in0.0 mm
10:00 PM 72.9°F22.7°C 49.7°F9.8°C 44% 3.3 mph N5.3 kmh N 3.8 mph6.1 kmh 29.79 in1008.8 mb 0.00 in0.0 mm 0.00 in0.0 mm 0.00 in0.0 mm
10:05 PM 72.9°F22.7°C 50.3°F10.2°C 45% 2.9 mph N4.7 kmh N 3.8 mph6.1 kmh 29.80 in1009.1 mb 0.00 in0.0 mm 0.00 in0.0 mm 0.00 in0.0 mm
10:10 PM 72.9°F22.7°C 50.3°F10.2°C 45% 2.6 mph N4.2 kmh N 3.8 mph6.1 kmh 29.80 in1009.1 mb 0.00 in0.0 mm 0.00 in0.0 mm 0.00 in0.0 mm
10:15 PM 72.9°F22.7°C 50.9°F10.5°C 46% 2.1 mph SSE3.4 kmh SSE 3.1 mph5.0 kmh 29.80 in1009.1 mb 0.00 in0.0 mm 0.00 in0.0 mm 0.00 in0.0 mm
10:20 PM 72.7°F22.6°C 50.7°F10.4°C 46% 2.1 mph E3.4 kmh E 3.1 mph5.0 kmh 29.80 in1009.1 mb 0.00 in0.0 mm 0.00 in0.0 mm 0.00 in0.0 mm
10:25 PM 72.5°F22.5°C 50.6°F10.3°C 46% 3.1 mph E5.0 kmh E 5.4 mph8.7 kmh 29.80 in1009.1 mb 0.00 in0.0 mm 0.00 in0.0 mm 0.00 in0.0 mm
10:30 PM 72.3°F22.4°C 50.4°F10.2°C 46% 2.9 mph E4.7 kmh E 5.4 mph8.7 kmh 29.80 in1009.1 mb 0.00 in0.0 mm 0.00 in0.0 mm 0.00 in0.0 mm
10:35 PM 72.1°F22.3°C 50.2°F10.1°C 46% 1.3 mph E2.1 kmh E 3.1 mph5.0 kmh 29.80 in1009.1 mb 0.00 in0.0 mm 0.00 in0.0 mm 0.00 in0.0 mm
10:40 PM 72.3°F22.4°C 51.0°F10.6°C 47% 0.3 mph S0.5 kmh S 1.6 mph2.6 kmh 29.80 in1009.1 mb 0.00 in0.0 mm 0.00 in0.0 mm 0.00 in0.0 mm
10:45 PM 72.3°F22.4°C 51.0°F10.6°C 47% 0.2 mph SSE0.3 kmh SSE 1.6 mph2.6 kmh 29.80 in1009.1 mb 0.00 in0.0 mm 0.00 in0.0 mm 0.00 in0.0 mm
10:50 PM 72.0°F22.2°C 50.7°F10.4°C 47% 0.7 mph S1.1 kmh S 1.6 mph2.6 kmh 29.80 in1009.1 mb 0.00 in0.0 mm 0.00 in0.0 mm 0.00 in0.0 mm
10:55 PM 71.8°F22.1°C 51.6°F10.9°C 49% 1.4 mph SSW2.3 kmh SSW 2.2 mph3.5 kmh 29.80 in1009.1 mb 0.00 in0.0 mm 0.00 in0.0 mm 0.00 in0.0 mm
11:00 PM 71.6°F22.0°C 51.5°F10.8°C 49% 1.4 mph SSW2.3 kmh SSW 2.2 mph3.5 kmh 29.80 in1009.1 mb 0.00 in0.0 mm 0.00 in0.0 mm 0.00 in0.0 mm
11:05 PM 71.4°F21.9°C 51.3°F10.7°C 49% 0.7 mph SW1.1 kmh SW 1.6 mph2.6 kmh 29.80 in1009.1 mb 0.00 in0.0 mm 0.00 in0.0 mm 0.00 in0.0 mm
11:10 PM 71.1°F21.7°C 51.5°F10.8°C 50% 0.2 mph WSW0.3 kmh WSW 0.7 mph1.1 kmh 29.80 in1009.1 mb 0.00 in0.0 mm 0.00 in0.0 mm 0.00 in0.0 mm
11:15 PM 70.9°F21.6°C 51.3°F10.7°C 50% 0.8 mph SSE1.3 kmh SSE 2.2 mph3.5 kmh 29.80 in1009.1 mb 0.00 in0.0 mm 0.00 in0.0 mm 0.00 in0.0 mm
11:20 PM 70.9°F21.6°C 51.9°F11.1°C 51% 1.7 mph SE2.7 kmh SE 2.2 mph3.5 kmh 29.80 in1009.1 mb 0.00 in0.0 mm 0.00 in0.0 mm 0.00 in0.0 mm
11:25 PM 70.9°F21.6°C 51.9°F11.1°C 51% 2.1 mph SE3.4 kmh SE 3.1 mph5.0 kmh 29.80 in1009.1 mb 0.00 in0.0 mm 0.00 in0.0 mm 0.00 in0.0 mm
11:30 PM 70.9°F21.6°C 51.9°F11.1°C 51% 2.2 mph SE3.5 kmh SE 3.1 mph5.0 kmh 29.79 in1008.8 mb 0.00 in0.0 mm 0.00 in0.0 mm 0.00 in0.0 mm
11:35 PM 70.9°F21.6°C 52.4°F11.3°C 52% 1.9 mph SE3.1 kmh SE 3.1 mph5.0 kmh 29.80 in1009.1 mb 0.00 in0.0 mm 0.00 in0.0 mm 0.00 in0.0 mm
11:40 PM 70.7°F21.5°C 52.2°F11.2°C 52% 1.5 mph S2.4 kmh S 2.2 mph3.5 kmh 29.79 in1008.8 mb 0.00 in0.0 mm 0.00 in0.0 mm 0.00 in0.0 mm
11:45 PM 70.7°F21.5°C 52.2°F11.2°C 52% 1.2 mph S1.9 kmh S 1.6 mph2.6 kmh 29.79 in1008.8 mb 0.00 in0.0 mm 0.00 in0.0 mm 0.00 in0.0 mm
11:50 PM 70.5°F21.4°C 52.6°F11.4°C 53% 1.3 mph S2.1 kmh S 2.2 mph3.5 kmh 29.79 in1008.8 mb 0.00 in0.0 mm 0.00 in0.0 mm 0.00 in0.0 mm
11:55 PM 70.5°F21.4°C 52.6°F11.4°C 53% 1.5 mph S2.4 kmh S 2.2 mph3.5 kmh 29.79 in1008.8 mb 0.00 in0.0 mm 0.00 in0.0 mm 0.00 in0.0 mm